sensor_id;sensor_type;location;lat;lon;timestamp;temperature;humidity
1455;DHT22;721;48.168;12.818;2023-05-10T00:01:52;15.10;10.20
1455;DHT22;721;48.168;12.818;2023-05-10T00:04:19;15.00;11.60
1455;DHT22;721;48.168;12.818;2023-05-10T00:06:46;15.10;13.50
1455;DHT22;721;48.168;12.818;2023-05-10T00:09:13;15.10;14.30
1455;DHT22;721;48.168;12.818;2023-05-10T00:11:42;14.90;15.90
1455;DHT22;721;48.168;12.818;2023-05-10T00:14:09;14.90;17.20
1455;DHT22;721;48.168;12.818;2023-05-10T00:16:35;14.90;16.40
1455;DHT22;721;48.168;12.818;2023-05-10T00:19:02;14.90;16.50
1455;DHT22;721;48.168;12.818;2023-05-10T00:21:29;15.10;14.30
1455;DHT22;721;48.168;12.818;2023-05-10T00:23:57;14.80;14.10
1455;DHT22;721;48.168;12.818;2023-05-10T00:26:23;14.90;15.50
1455;DHT22;721;48.168;12.818;2023-05-10T00:28:51;14.70;16.80
1455;DHT22;721;48.168;12.818;2023-05-10T00:31:18;14.70;17.40
1455;DHT22;721;48.168;12.818;2023-05-10T00:33:45;14.90;19.20
1455;DHT22;721;48.168;12.818;2023-05-10T00:36:12;14.70;18.60
1455;DHT22;721;48.168;12.818;2023-05-10T00:38:39;14.70;18.50
1455;DHT22;721;48.168;12.818;2023-05-10T00:41:06;14.70;18.30
1455;DHT22;721;48.168;12.818;2023-05-10T00:43:33;14.60;19.60
1455;DHT22;721;48.168;12.818;2023-05-10T00:46:01;14.70;18.50
1455;DHT22;721;48.168;12.818;2023-05-10T00:48:29;14.70;18.20
1455;DHT22;721;48.168;12.818;2023-05-10T00:50:55;14.60;15.80
1455;DHT22;721;48.168;12.818;2023-05-10T00:53:22;14.60;16.10
1455;DHT22;721;48.168;12.818;2023-05-10T00:55:49;14.60;16.90
1455;DHT22;721;48.168;12.818;2023-05-10T00:58:16;14.60;16.60
1455;DHT22;721;48.168;12.818;2023-05-10T01:00:43;14.60;16.20
1455;DHT22;721;48.168;12.818;2023-05-10T01:03:14;14.70;16.70
1455;DHT22;721;48.168;12.818;2023-05-10T01:05:41;14.50;16.40
1455;DHT22;721;48.168;12.818;2023-05-10T01:08:07;14.60;16.20
1455;DHT22;721;48.168;12.818;2023-05-10T01:10:35;14.50;17.90
1455;DHT22;721;48.168;12.818;2023-05-10T01:13:02;14.50;17.70
1455;DHT22;721;48.168;12.818;2023-05-10T01:15:30;14.50;16.90
1455;DHT22;721;48.168;12.818;2023-05-10T01:17:57;14.50;17.60
1455;DHT22;721;48.168;12.818;2023-05-10T01:20:28;14.50;17.90
1455;DHT22;721;48.168;12.818;2023-05-10T01:23:14;14.50;17.90
1455;DHT22;721;48.168;12.818;2023-05-10T01:26:01;14.50;19.40
1455;DHT22;721;48.168;12.818;2023-05-10T01:29:05;14.50;20.40
1455;DHT22;721;48.168;12.818;2023-05-10T01:34:35;14.40;21.20
1455;DHT22;721;48.168;12.818;2023-05-10T01:37:06;14.40;24.50
1455;DHT22;721;48.168;12.818;2023-05-10T01:39:42;14.40;26.70
1455;DHT22;721;48.168;12.818;2023-05-10T01:42:16;14.40;31.30
1455;DHT22;721;48.168;12.818;2023-05-10T01:44:51;14.50;33.80
1455;DHT22;721;48.168;12.818;2023-05-10T01:47:28;14.40;36.00
1455;DHT22;721;48.168;12.818;2023-05-10T01:50:01;14.50;38.20
1455;DHT22;721;48.168;12.818;2023-05-10T01:52:32;14.60;38.60
1455;DHT22;721;48.168;12.818;2023-05-10T01:55:02;14.60;39.90
1455;DHT22;721;48.168;12.818;2023-05-10T01:57:34;14.60;39.90
1455;DHT22;721;48.168;12.818;2023-05-10T02:00:02;14.60;40.70
1455;DHT22;721;48.168;12.818;2023-05-10T02:02:30;14.70;41.60
1455;DHT22;721;48.168;12.818;2023-05-10T02:05:00;14.80;42.40
1455;DHT22;721;48.168;12.818;2023-05-10T02:07:28;14.80;41.70
1455;DHT22;721;48.168;12.818;2023-05-10T02:09:55;14.90;41.60
1455;DHT22;721;48.168;12.818;2023-05-10T02:12:24;14.90;42.10
1455;DHT22;721;48.168;12.818;2023-05-10T02:14:53;14.90;42.60
1455;DHT22;721;48.168;12.818;2023-05-10T02:17:21;14.90;42.70
1455;DHT22;721;48.168;12.818;2023-05-10T02:19:49;15.00;42.30
1455;DHT22;721;48.168;12.818;2023-05-10T02:22:20;15.00;42.60
1455;DHT22;721;48.168;12.818;2023-05-10T02:24:48;15.00;42.00
1455;DHT22;721;48.168;12.818;2023-05-10T02:27:17;15.10;41.30
1455;DHT22;721;48.168;12.818;2023-05-10T02:29:46;15.10;41.60
1455;DHT22;721;48.168;12.818;2023-05-10T02:32:14;15.20;40.70
1455;DHT22;721;48.168;12.818;2023-05-10T02:34:42;15.20;40.40
1455;DHT22;721;48.168;12.818;2023-05-10T02:37:10;15.30;40.80
1455;DHT22;721;48.168;12.818;2023-05-10T02:39:39;15.30;41.40
1455;DHT22;721;48.168;12.818;2023-05-10T02:42:11;15.30;40.50
1455;DHT22;721;48.168;12.818;2023-05-10T02:44:41;15.30;42.00
1455;DHT22;721;48.168;12.818;2023-05-10T02:47:08;15.30;42.30
1455;DHT22;721;48.168;12.818;2023-05-10T02:49:35;15.20;42.90
1455;DHT22;721;48.168;12.818;2023-05-10T02:52:05;15.10;44.20
1455;DHT22;721;48.168;12.818;2023-05-10T02:54:43;15.10;45.20
1455;DHT22;721;48.168;12.818;2023-05-10T02:57:14;15.10;46.00
1455;DHT22;721;48.168;12.818;2023-05-10T02:59:43;15.00;47.00
1455;DHT22;721;48.168;12.818;2023-05-10T03:02:11;15.10;48.80
1455;DHT22;721;48.168;12.818;2023-05-10T03:04:38;15.10;47.60
1455;DHT22;721;48.168;12.818;2023-05-10T03:07:05;15.10;47.60
1455;DHT22;721;48.168;12.818;2023-05-10T03:09:32;15.10;47.40
1455;DHT22;721;48.168;12.818;2023-05-10T03:12:05;15.10;47.80
1455;DHT22;721;48.168;12.818;2023-05-10T03:14:42;15.10;48.10
1455;DHT22;721;48.168;12.818;2023-05-10T03:17:16;15.10;48.70
1455;DHT22;721;48.168;12.818;2023-05-10T03:19:49;15.10;47.00
1455;DHT22;721;48.168;12.818;2023-05-10T03:22:23;15.10;47.20
1455;DHT22;721;48.168;12.818;2023-05-10T03:24:51;15.10;46.40
1455;DHT22;721;48.168;12.818;2023-05-10T03:27:22;15.10;48.10
1455;DHT22;721;48.168;12.818;2023-05-10T03:29:51;15.20;48.00
1455;DHT22;721;48.168;12.818;2023-05-10T03:32:19;15.30;47.00
1455;DHT22;721;48.168;12.818;2023-05-10T03:34:45;15.30;46.30
1455;DHT22;721;48.168;12.818;2023-05-10T03:37:12;15.30;47.20
1455;DHT22;721;48.168;12.818;2023-05-10T03:39:39;15.30;47.30
1455;DHT22;721;48.168;12.818;2023-05-10T03:42:06;15.30;46.40
1455;DHT22;721;48.168;12.818;2023-05-10T03:44:34;15.30;46.00
1455;DHT22;721;48.168;12.818;2023-05-10T03:47:01;15.30;47.10
1455;DHT22;721;48.168;12.818;2023-05-10T03:49:28;15.40;47.10
1455;DHT22;721;48.168;12.818;2023-05-10T03:51:54;15.40;46.80
1455;DHT22;721;48.168;12.818;2023-05-10T03:54:21;15.40;47.40
1455;DHT22;721;48.168;12.818;2023-05-10T03:56:48;15.40;47.30
1455;DHT22;721;48.168;12.818;2023-05-10T03:59:14;15.40;47.60
1455;DHT22;721;48.168;12.818;2023-05-10T04:01:42;15.30;50.20
1455;DHT22;721;48.168;12.818;2023-05-10T04:04:09;15.30;50.60
1455;DHT22;721;48.168;12.818;2023-05-10T04:06:37;15.10;50.50
1455;DHT22;721;48.168;12.818;2023-05-10T04:09:04;15.10;52.70
1455;DHT22;721;48.168;12.818;2023-05-10T04:11:31;15.10;53.70
1455;DHT22;721;48.168;12.818;2023-05-10T04:13:57;15.10;55.90
1455;DHT22;721;48.168;12.818;2023-05-10T04:16:24;15.10;53.60
1455;DHT22;721;48.168;12.818;2023-05-10T04:18:52;15.10;53.90
1455;DHT22;721;48.168;12.818;2023-05-10T04:21:19;15.10;53.70
1455;DHT22;721;48.168;12.818;2023-05-10T04:23:46;15.00;54.60
1455;DHT22;721;48.168;12.818;2023-05-10T04:26:13;15.00;54.60
1455;DHT22;721;48.168;12.818;2023-05-10T04:28:40;14.90;56.00
1455;DHT22;721;48.168;12.818;2023-05-10T04:31:08;14.90;57.30
1455;DHT22;721;48.168;12.818;2023-05-10T04:33:36;14.90;57.20
1455;DHT22;721;48.168;12.818;2023-05-10T04:36:05;14.90;57.60
1455;DHT22;721;48.168;12.818;2023-05-10T04:38:32;14.90;59.10
1455;DHT22;721;48.168;12.818;2023-05-10T04:41:05;14.80;59.70
1455;DHT22;721;48.168;12.818;2023-05-10T04:43:32;14.80;60.80
1455;DHT22;721;48.168;12.818;2023-05-10T04:45:59;14.70;61.10
1455;DHT22;721;48.168;12.818;2023-05-10T04:48:26;14.70;60.50
1455;DHT22;721;48.168;12.818;2023-05-10T04:50:53;14.70;60.80
1455;DHT22;721;48.168;12.818;2023-05-10T04:53:22;14.80;62.20
1455;DHT22;721;48.168;12.818;2023-05-10T04:55:49;14.80;62.30
1455;DHT22;721;48.168;12.818;2023-05-10T04:58:16;14.80;61.80
1455;DHT22;721;48.168;12.818;2023-05-10T05:00:42;14.80;62.50
1455;DHT22;721;48.168;12.818;2023-05-10T05:03:09;14.80;62.60
1455;DHT22;721;48.168;12.818;2023-05-10T05:05:36;14.70;63.70
1455;DHT22;721;48.168;12.818;2023-05-10T05:08:03;14.70;65.60
1455;DHT22;721;48.168;12.818;2023-05-10T05:10:31;14.70;65.50
1455;DHT22;721;48.168;12.818;2023-05-10T05:12:58;14.70;65.80
1455;DHT22;721;48.168;12.818;2023-05-10T05:15:25;14.70;66.30
1455;DHT22;721;48.168;12.818;2023-05-10T05:17:51;14.60;65.90
1455;DHT22;721;48.168;12.818;2023-05-10T05:20:18;14.60;65.60
1455;DHT22;721;48.168;12.818;2023-05-10T05:22:45;14.60;67.10
1455;DHT22;721;48.168;12.818;2023-05-10T05:25:12;14.70;66.70
1455;DHT22;721;48.168;12.818;2023-05-10T05:27:40;14.60;67.00
1455;DHT22;721;48.168;12.818;2023-05-10T05:30:07;14.60;66.50
1455;DHT22;721;48.168;12.818;2023-05-10T05:32:34;14.70;66.80
1455;DHT22;721;48.168;12.818;2023-05-10T05:35:01;14.70;66.10
1455;DHT22;721;48.168;12.818;2023-05-10T05:37:28;14.70;66.00
1455;DHT22;721;48.168;12.818;2023-05-10T05:39:54;14.60;65.50
1455;DHT22;721;48.168;12.818;2023-05-10T05:42:21;14.60;66.50
1455;DHT22;721;48.168;12.818;2023-05-10T05:44:49;14.60;66.50
1455;DHT22;721;48.168;12.818;2023-05-10T05:47:16;14.50;67.20
1455;DHT22;721;48.168;12.818;2023-05-10T05:49:43;14.40;69.20
1455;DHT22;721;48.168;12.818;2023-05-10T05:52:11;14.40;70.80
1455;DHT22;721;48.168;12.818;2023-05-10T05:54:38;14.40;71.10
1455;DHT22;721;48.168;12.818;2023-05-10T05:57:05;14.40;71.10
1455;DHT22;721;48.168;12.818;2023-05-10T05:59:33;14.40;69.80
1455;DHT22;721;48.168;12.818;2023-05-10T06:02:01;14.40;69.70
1455;DHT22;721;48.168;12.818;2023-05-10T06:04:27;14.40;69.90
1455;DHT22;721;48.168;12.818;2023-05-10T06:06:54;14.40;71.10
1455;DHT22;721;48.168;12.818;2023-05-10T06:09:21;14.40;70.30
1455;DHT22;721;48.168;12.818;2023-05-10T06:11:49;14.50;71.40
1455;DHT22;721;48.168;12.818;2023-05-10T06:14:16;14.50;71.30
1455;DHT22;721;48.168;12.818;2023-05-10T06:16:43;14.50;71.30
1455;DHT22;721;48.168;12.818;2023-05-10T06:19:11;14.50;71.70
1455;DHT22;721;48.168;12.818;2023-05-10T06:21:38;14.50;72.00
1455;DHT22;721;48.168;12.818;2023-05-10T06:24:05;14.50;71.70
1455;DHT22;721;48.168;12.818;2023-05-10T06:26:32;14.50;71.90
1455;DHT22;721;48.168;12.818;2023-05-10T06:28:59;14.60;73.20
1455;DHT22;721;48.168;12.818;2023-05-10T06:31:26;14.60;74.00
1455;DHT22;721;48.168;12.818;2023-05-10T06:33:53;14.60;72.30
1455;DHT22;721;48.168;12.818;2023-05-10T06:36:21;14.50;74.00
1455;DHT22;721;48.168;12.818;2023-05-10T06:44:47;14.60;72.50
1455;DHT22;721;48.168;12.818;2023-05-10T06:47:13;14.50;73.00
1455;DHT22;721;48.168;12.818;2023-05-10T06:49:40;14.60;72.70
1455;DHT22;721;48.168;12.818;2023-05-10T06:52:08;14.60;73.20
1455;DHT22;721;48.168;12.818;2023-05-10T06:54:35;14.70;72.70
1455;DHT22;721;48.168;12.818;2023-05-10T06:57:02;14.80;73.00
1455;DHT22;721;48.168;12.818;2023-05-10T06:59:29;14.80;71.60
1455;DHT22;721;48.168;12.818;2023-05-10T07:01:56;14.80;69.40
1455;DHT22;721;48.168;12.818;2023-05-10T07:04:23;14.80;70.20
1455;DHT22;721;48.168;12.818;2023-05-10T07:06:50;14.80;68.80
1455;DHT22;721;48.168;12.818;2023-05-10T07:09:18;14.70;70.70
1455;DHT22;721;48.168;12.818;2023-05-10T07:11:45;14.70;72.20
1455;DHT22;721;48.168;12.818;2023-05-10T07:14:11;14.70;70.00
1455;DHT22;721;48.168;12.818;2023-05-10T07:16:38;14.60;69.80
1455;DHT22;721;48.168;12.818;2023-05-10T07:19:05;14.60;70.90
1455;DHT22;721;48.168;12.818;2023-05-10T07:21:31;14.50;71.80
1455;DHT22;721;48.168;12.818;2023-05-10T07:23:58;14.40;72.20
1455;DHT22;721;48.168;12.818;2023-05-10T07:26:27;14.30;72.10
1455;DHT22;721;48.168;12.818;2023-05-10T07:28:54;14.20;75.50
1455;DHT22;721;48.168;12.818;2023-05-10T07:31:21;14.10;77.20
1455;DHT22;721;48.168;12.818;2023-05-10T07:33:47;14.10;77.80
1455;DHT22;721;48.168;12.818;2023-05-10T07:36:14;14.10;78.40
1455;DHT22;721;48.168;12.818;2023-05-10T07:38:41;14.00;76.70
1455;DHT22;721;48.168;12.818;2023-05-10T07:41:08;13.80;73.60
1455;DHT22;721;48.168;12.818;2023-05-10T07:43:37;13.70;76.10
1455;DHT22;721;48.168;12.818;2023-05-10T07:46:04;13.60;78.90
1455;DHT22;721;48.168;12.818;2023-05-10T07:48:31;13.60;80.10
1455;DHT22;721;48.168;12.818;2023-05-10T07:50:58;13.60;78.10
1455;DHT22;721;48.168;12.818;2023-05-10T07:53:26;13.60;78.90
1455;DHT22;721;48.168;12.818;2023-05-10T07:55:54;13.60;80.40
1455;DHT22;721;48.168;12.818;2023-05-10T07:58:23;13.70;80.80
1455;DHT22;721;48.168;12.818;2023-05-10T08:00:52;13.70;79.70
1455;DHT22;721;48.168;12.818;2023-05-10T08:03:19;13.70;75.50
1455;DHT22;721;48.168;12.818;2023-05-10T08:05:45;13.70;78.20
1455;DHT22;721;48.168;12.818;2023-05-10T08:08:12;13.70;76.90
1455;DHT22;721;48.168;12.818;2023-05-10T08:10:39;13.70;76.20
1455;DHT22;721;48.168;12.818;2023-05-10T08:13:05;13.70;75.10
1455;DHT22;721;48.168;12.818;2023-05-10T08:15:32;13.60;75.90
1455;DHT22;721;48.168;12.818;2023-05-10T08:18:00;13.60;77.50
1455;DHT22;721;48.168;12.818;2023-05-10T08:20:27;13.60;79.10
1455;DHT22;721;48.168;12.818;2023-05-10T08:22:54;13.60;80.40
1455;DHT22;721;48.168;12.818;2023-05-10T08:25:20;13.60;80.50
1455;DHT22;721;48.168;12.818;2023-05-10T08:27:47;13.60;79.10
1455;DHT22;721;48.168;12.818;2023-05-10T08:30:14;13.70;81.30
1455;DHT22;721;48.168;12.818;2023-05-10T08:32:41;13.70;78.70
1455;DHT22;721;48.168;12.818;2023-05-10T08:35:09;13.70;76.60
1455;DHT22;721;48.168;12.818;2023-05-10T08:37:36;13.60;78.40
1455;DHT22;721;48.168;12.818;2023-05-10T08:40:03;13.60;80.10
1455;DHT22;721;48.168;12.818;2023-05-10T08:42:30;13.70;77.20
1455;DHT22;721;48.168;12.818;2023-05-10T08:44:59;13.60;75.20
1455;DHT22;721;48.168;12.818;2023-05-10T08:47:28;13.50;74.90
1455;DHT22;721;48.168;12.818;2023-05-10T08:49:57;13.50;76.30
1455;DHT22;721;48.168;12.818;2023-05-10T08:52:28;13.50;77.80
1455;DHT22;721;48.168;12.818;2023-05-10T08:54:56;13.60;79.20
1455;DHT22;721;48.168;12.818;2023-05-10T08:57:23;13.80;77.60
1455;DHT22;721;48.168;12.818;2023-05-10T08:59:50;13.60;79.50
1455;DHT22;721;48.168;12.818;2023-05-10T09:02:18;13.80;79.30
1455;DHT22;721;48.168;12.818;2023-05-10T09:04:46;13.70;78.40
1455;DHT22;721;48.168;12.818;2023-05-10T09:07:14;13.60;75.90
1455;DHT22;721;48.168;12.818;2023-05-10T09:09:42;13.60;75.00
1455;DHT22;721;48.168;12.818;2023-05-10T09:12:10;13.60;79.50
1455;DHT22;721;48.168;12.818;2023-05-10T09:14:37;13.70;79.40
1455;DHT22;721;48.168;12.818;2023-05-10T09:17:05;13.80;78.50
1455;DHT22;721;48.168;12.818;2023-05-10T09:19:32;13.70;73.70
1455;DHT22;721;48.168;12.818;2023-05-10T09:21:59;13.50;73.30
1455;DHT22;721;48.168;12.818;2023-05-10T09:24:30;13.50;74.10
1455;DHT22;721;48.168;12.818;2023-05-10T09:26:58;13.40;74.30
1455;DHT22;721;48.168;12.818;2023-05-10T09:29:25;13.40;74.50
1455;DHT22;721;48.168;12.818;2023-05-10T09:31:52;13.40;76.40
1455;DHT22;721;48.168;12.818;2023-05-10T09:34:22;13.50;75.90
1455;DHT22;721;48.168;12.818;2023-05-10T09:36:56;13.50;75.70
1455;DHT22;721;48.168;12.818;2023-05-10T09:39:33;13.60;75.60
1455;DHT22;721;48.168;12.818;2023-05-10T09:42:04;13.60;74.70
1455;DHT22;721;48.168;12.818;2023-05-10T09:44:31;13.50;72.60
1455;DHT22;721;48.168;12.818;2023-05-10T09:46:59;13.60;76.90
1455;DHT22;721;48.168;12.818;2023-05-10T09:49:26;13.80;77.30
1455;DHT22;721;48.168;12.818;2023-05-10T09:52:03;13.90;76.50
1455;DHT22;721;48.168;12.818;2023-05-10T09:54:31;13.90;73.80
1455;DHT22;721;48.168;12.818;2023-05-10T09:56:58;13.90;70.70
1455;DHT22;721;48.168;12.818;2023-05-10T09:59:27;14.00;73.30
1455;DHT22;721;48.168;12.818;2023-05-10T10:01:56;14.00;69.40
1455;DHT22;721;48.168;12.818;2023-05-10T10:04:23;14.00;67.80
1455;DHT22;721;48.168;12.818;2023-05-10T10:07:01;14.10;69.80
1455;DHT22;721;48.168;12.818;2023-05-10T10:09:29;14.00;68.20
1455;DHT22;721;48.168;12.818;2023-05-10T10:11:55;14.10;73.10
1455;DHT22;721;48.168;12.818;2023-05-10T10:14:23;14.10;68.50
1455;DHT22;721;48.168;12.818;2023-05-10T10:16:51;14.20;70.80
1455;DHT22;721;48.168;12.818;2023-05-10T10:19:18;14.30;68.90
1455;DHT22;721;48.168;12.818;2023-05-10T10:21:46;14.30;71.30
1455;DHT22;721;48.168;12.818;2023-05-10T10:24:12;14.40;69.50
1455;DHT22;721;48.168;12.818;2023-05-10T10:26:40;14.40;69.90
1455;DHT22;721;48.168;12.818;2023-05-10T10:29:17;14.40;65.80
1455;DHT22;721;48.168;12.818;2023-05-10T10:31:48;14.50;66.30
1455;DHT22;721;48.168;12.818;2023-05-10T10:34:25;14.60;68.20
1455;DHT22;721;48.168;12.818;2023-05-10T10:36:54;14.70;64.50
1455;DHT22;721;48.168;12.818;2023-05-10T10:39:22;14.90;66.10
1455;DHT22;721;48.168;12.818;2023-05-10T10:41:51;14.90;61.50
1455;DHT22;721;48.168;12.818;2023-05-10T10:44:36;15.00;59.30
1455;DHT22;721;48.168;12.818;2023-05-10T10:47:22;15.10;57.40
1455;DHT22;721;48.168;12.818;2023-05-10T10:50:05;15.20;57.60
1455;DHT22;721;48.168;12.818;2023-05-10T10:52:33;15.40;62.70
1455;DHT22;721;48.168;12.818;2023-05-10T10:55:02;15.60;57.80
1455;DHT22;721;48.168;12.818;2023-05-10T10:57:32;15.60;50.70
1455;DHT22;721;48.168;12.818;2023-05-10T11:00:24;15.60;55.60
1455;DHT22;721;48.168;12.818;2023-05-10T11:02:53;15.70;47.10
1455;DHT22;721;48.168;12.818;2023-05-10T11:05:26;15.90;53.60
1455;DHT22;721;48.168;12.818;2023-05-10T11:08:00;15.90;52.60
1455;DHT22;721;48.168;12.818;2023-05-10T11:10:32;16.00;47.90
1455;DHT22;721;48.168;12.818;2023-05-10T11:13:00;16.20;56.70
1455;DHT22;721;48.168;12.818;2023-05-10T11:15:31;16.20;51.00
1455;DHT22;721;48.168;12.818;2023-05-10T11:17:58;16.20;41.40
1455;DHT22;721;48.168;12.818;2023-05-10T11:20:32;16.30;38.80
1455;DHT22;721;48.168;12.818;2023-05-10T11:23:12;16.30;43.20
1455;DHT22;721;48.168;12.818;2023-05-10T11:25:42;16.40;43.70
1455;DHT22;721;48.168;12.818;2023-05-10T11:28:10;16.40;40.00
1455;DHT22;721;48.168;12.818;2023-05-10T11:30:38;16.50;40.40
1455;DHT22;721;48.168;12.818;2023-05-10T11:33:05;16.60;35.00
1455;DHT22;721;48.168;12.818;2023-05-10T11:35:37;16.60;33.10
1455;DHT22;721;48.168;12.818;2023-05-10T11:38:06;16.60;34.30
1455;DHT22;721;48.168;12.818;2023-05-10T11:40:32;16.80;42.10
1455;DHT22;721;48.168;12.818;2023-05-10T11:42:59;16.80;31.90
1455;DHT22;721;48.168;12.818;2023-05-10T11:45:26;17.00;33.90
1455;DHT22;721;48.168;12.818;2023-05-10T11:47:54;17.00;27.70
1455;DHT22;721;48.168;12.818;2023-05-10T11:50:21;17.00;27.90
1455;DHT22;721;48.168;12.818;2023-05-10T11:52:52;16.90;23.60
1455;DHT22;721;48.168;12.818;2023-05-10T11:55:19;16.80;27.70
1455;DHT22;721;48.168;12.818;2023-05-10T11:57:46;16.80;31.90
1455;DHT22;721;48.168;12.818;2023-05-10T12:00:13;16.90;45.10
1455;DHT22;721;48.168;12.818;2023-05-10T12:02:40;16.90;37.10
1455;DHT22;721;48.168;12.818;2023-05-10T12:05:08;16.90;34.40
1455;DHT22;721;48.168;12.818;2023-05-10T12:07:35;16.90;30.00
1455;DHT22;721;48.168;12.818;2023-05-10T12:10:08;16.80;33.10
1455;DHT22;721;48.168;12.818;2023-05-10T12:12:38;16.90;35.40
1455;DHT22;721;48.168;12.818;2023-05-10T12:15:11;16.80;32.90
1455;DHT22;721;48.168;12.818;2023-05-10T12:17:38;16.90;35.00
1455;DHT22;721;48.168;12.818;2023-05-10T12:20:16;16.70;33.20
1455;DHT22;721;48.168;12.818;2023-05-10T12:22:47;16.50;38.80
1455;DHT22;721;48.168;12.818;2023-05-10T12:25:15;16.10;40.60
1455;DHT22;721;48.168;12.818;2023-05-10T12:27:48;15.60;50.50
1455;DHT22;721;48.168;12.818;2023-05-10T12:30:19;15.30;56.30
1455;DHT22;721;48.168;12.818;2023-05-10T12:32:47;14.90;59.50
1455;DHT22;721;48.168;12.818;2023-05-10T12:35:14;14.80;62.00
1455;DHT22;721;48.168;12.818;2023-05-10T12:37:42;14.70;61.70
1455;DHT22;721;48.168;12.818;2023-05-10T12:40:10;14.60;64.60
1455;DHT22;721;48.168;12.818;2023-05-10T12:42:39;14.70;61.60
1455;DHT22;721;48.168;12.818;2023-05-10T12:45:07;14.70;66.60
1455;DHT22;721;48.168;12.818;2023-05-10T12:47:34;14.70;67.30
1455;DHT22;721;48.168;12.818;2023-05-10T12:50:01;14.50;60.80
1455;DHT22;721;48.168;12.818;2023-05-10T12:52:29;14.50;66.70
1455;DHT22;721;48.168;12.818;2023-05-10T12:54:57;14.40;66.90
1455;DHT22;721;48.168;12.818;2023-05-10T12:57:24;14.30;68.90
1455;DHT22;721;48.168;12.818;2023-05-10T12:59:52;14.20;59.60
1455;DHT22;721;48.168;12.818;2023-05-10T13:02:19;14.30;60.10
1455;DHT22;721;48.168;12.818;2023-05-10T13:04:46;14.20;53.00
1455;DHT22;721;48.168;12.818;2023-05-10T13:07:13;14.30;55.80
1455;DHT22;721;48.168;12.818;2023-05-10T13:09:40;14.40;58.70
1455;DHT22;721;48.168;12.818;2023-05-10T13:12:07;14.40;63.00
1455;DHT22;721;48.168;12.818;2023-05-10T13:14:33;14.50;65.00
1455;DHT22;721;48.168;12.818;2023-05-10T13:17:01;14.50;60.40
1455;DHT22;721;48.168;12.818;2023-05-10T13:19:28;14.50;58.80
1455;DHT22;721;48.168;12.818;2023-05-10T13:21:55;14.50;59.90
1455;DHT22;721;48.168;12.818;2023-05-10T13:24:22;14.50;51.00
1455;DHT22;721;48.168;12.818;2023-05-10T13:26:49;14.50;57.60
1455;DHT22;721;48.168;12.818;2023-05-10T13:29:15;14.50;56.80
1455;DHT22;721;48.168;12.818;2023-05-10T13:31:43;14.50;60.60
1455;DHT22;721;48.168;12.818;2023-05-10T13:34:11;14.50;58.90
1455;DHT22;721;48.168;12.818;2023-05-10T13:36:38;14.50;57.80
1455;DHT22;721;48.168;12.818;2023-05-10T13:39:05;14.50;56.70
1455;DHT22;721;48.168;12.818;2023-05-10T13:41:32;14.50;52.30
1455;DHT22;721;48.168;12.818;2023-05-10T13:43:59;14.30;50.20
1455;DHT22;721;48.168;12.818;2023-05-10T13:46:26;14.30;50.50
1455;DHT22;721;48.168;12.818;2023-05-10T13:48:52;14.30;52.00
1455;DHT22;721;48.168;12.818;2023-05-10T13:51:21;14.30;49.50
1455;DHT22;721;48.168;12.818;2023-05-10T13:53:47;14.30;49.20
1455;DHT22;721;48.168;12.818;2023-05-10T13:56:14;14.30;49.20
1455;DHT22;721;48.168;12.818;2023-05-10T13:58:41;14.40;52.10
1455;DHT22;721;48.168;12.818;2023-05-10T14:01:08;14.50;53.50
1455;DHT22;721;48.168;12.818;2023-05-10T14:03:35;14.60;57.10
1455;DHT22;721;48.168;12.818;2023-05-10T14:06:02;14.60;57.20
1455;DHT22;721;48.168;12.818;2023-05-10T14:08:30;14.70;52.80
1455;DHT22;721;48.168;12.818;2023-05-10T14:10:57;14.70;56.90
1455;DHT22;721;48.168;12.818;2023-05-10T14:13:24;14.80;55.60
1455;DHT22;721;48.168;12.818;2023-05-10T14:15:52;14.90;55.60
1455;DHT22;721;48.168;12.818;2023-05-10T14:18:19;15.00;53.90
1455;DHT22;721;48.168;12.818;2023-05-10T14:20:46;15.00;56.90
1455;DHT22;721;48.168;12.818;2023-05-10T14:23:13;15.10;58.80
1455;DHT22;721;48.168;12.818;2023-05-10T14:25:41;15.10;60.80
1455;DHT22;721;48.168;12.818;2023-05-10T14:28:08;15.20;61.30
1455;DHT22;721;48.168;12.818;2023-05-10T14:30:34;15.20;60.50
1455;DHT22;721;48.168;12.818;2023-05-10T14:33:02;15.20;59.50
1455;DHT22;721;48.168;12.818;2023-05-10T14:35:29;15.10;59.40
1455;DHT22;721;48.168;12.818;2023-05-10T14:37:57;15.00;60.80
1455;DHT22;721;48.168;12.818;2023-05-10T14:40:24;15.00;61.40
1455;DHT22;721;48.168;12.818;2023-05-10T14:42:52;14.90;61.30
1455;DHT22;721;48.168;12.818;2023-05-10T14:45:20;14.90;63.50
1455;DHT22;721;48.168;12.818;2023-05-10T14:47:46;14.80;61.10
1455;DHT22;721;48.168;12.818;2023-05-10T14:50:13;14.80;62.70
1455;DHT22;721;48.168;12.818;2023-05-10T14:52:40;14.80;63.20
1455;DHT22;721;48.168;12.818;2023-05-10T14:55:08;14.80;65.60
1455;DHT22;721;48.168;12.818;2023-05-10T14:57:35;14.90;60.80
1455;DHT22;721;48.168;12.818;2023-05-10T15:00:04;14.80;59.10
1455;DHT22;721;48.168;12.818;2023-05-10T15:02:31;14.90;59.20
1455;DHT22;721;48.168;12.818;2023-05-10T15:04:58;14.90;62.50
1455;DHT22;721;48.168;12.818;2023-05-10T15:07:25;15.00;59.20
1455;DHT22;721;48.168;12.818;2023-05-10T15:09:52;15.10;58.30
1455;DHT22;721;48.168;12.818;2023-05-10T15:12:19;15.10;55.90
1455;DHT22;721;48.168;12.818;2023-05-10T15:14:46;15.10;59.70
1455;DHT22;721;48.168;12.818;2023-05-10T15:17:14;15.10;58.50
1455;DHT22;721;48.168;12.818;2023-05-10T15:19:41;15.20;60.40
1455;DHT22;721;48.168;12.818;2023-05-10T15:22:08;15.30;63.90
1455;DHT22;721;48.168;12.818;2023-05-10T15:24:35;15.30;56.50
1455;DHT22;721;48.168;12.818;2023-05-10T15:27:02;15.40;57.70
1455;DHT22;721;48.168;12.818;2023-05-10T15:29:29;15.40;56.20
1455;DHT22;721;48.168;12.818;2023-05-10T15:31:57;15.40;57.40
1455;DHT22;721;48.168;12.818;2023-05-10T15:34:25;15.50;56.00
1455;DHT22;721;48.168;12.818;2023-05-10T15:36:51;15.50;61.30
1455;DHT22;721;48.168;12.818;2023-05-10T15:39:18;15.40;58.90
1455;DHT22;721;48.168;12.818;2023-05-10T15:41:45;15.50;59.80
1455;DHT22;721;48.168;12.818;2023-05-10T15:44:12;15.30;60.60
1455;DHT22;721;48.168;12.818;2023-05-10T15:46:39;15.10;57.20
1455;DHT22;721;48.168;12.818;2023-05-10T15:49:06;14.70;57.50
1455;DHT22;721;48.168;12.818;2023-05-10T15:51:34;14.50;59.80
1455;DHT22;721;48.168;12.818;2023-05-10T15:54:02;14.40;59.70
1455;DHT22;721;48.168;12.818;2023-05-10T15:56:31;14.30;61.30
1455;DHT22;721;48.168;12.818;2023-05-10T15:58:58;14.10;61.70
1455;DHT22;721;48.168;12.818;2023-05-10T16:01:25;13.90;59.30
1455;DHT22;721;48.168;12.818;2023-05-10T16:03:52;13.80;62.90
1455;DHT22;721;48.168;12.818;2023-05-10T16:06:19;13.70;66.40
1455;DHT22;721;48.168;12.818;2023-05-10T16:08:48;13.60;64.30
1455;DHT22;721;48.168;12.818;2023-05-10T16:11:14;13.50;65.80
1455;DHT22;721;48.168;12.818;2023-05-10T16:13:41;13.40;68.30
1455;DHT22;721;48.168;12.818;2023-05-10T16:16:08;13.30;67.40
1455;DHT22;721;48.168;12.818;2023-05-10T16:18:35;13.30;71.10